Time;durP1;ratioP1;P1;durP2;ratioP2;P2;SDS_P1;SDS_P2;PMS_P1;PMS_P2;Temp;Humidity;BMP_temperature;BMP_pressure;BME280_temperature;BME280_humidity;BME280_pressure;Samples;Min_cycle;Max_cycle;Signal;HPM_P1;HPM_P2
2022/12/14 00:00:51;;;;;;;5.47;4.93;;;;;;;;;;4977178;28;20194;-89
2022/12/14 00:03:17;;;;;;;4.23;3.87;;;;;;;;;;4986438;28;20609;-89
2022/12/14 00:05:44;;;;;;;6.43;4.37;;;;;;;;;;4988974;28;20226;-89
2022/12/14 00:08:11;;;;;;;6.20;5.73;;;-7.40;99.90;;;;;;4995461;28;20674;-89
2022/12/14 00:10:38;;;;;;;14.67;7.80;;;-7.50;99.90;;;;;;4987211;28;20253;-89
2022/12/14 00:13:05;;;;;;;6.10;4.80;;;-7.50;99.90;;;;;;4959097;28;20201;-89
2022/12/14 00:15:32;;;;;;;6.30;3.77;;;;;;;;;;4977643;28;20828;-90
2022/12/14 00:17:58;;;;;;;6.57;3.37;;;;;;;;;;4976348;28;20274;-89
2022/12/14 00:20:24;;;;;;;10.50;5.23;;;;;;;;;;4981585;28;20194;-89
2022/12/14 00:22:52;;;;;;;3.70;3.50;;;;;;;;;;4977206;28;20217;-90
2022/12/14 00:25:18;;;;;;;3.13;2.83;;;;;;;;;;4973687;28;20267;-89
2022/12/14 00:27:45;;;;;;;5.97;5.23;;;-7.60;99.90;;;;;;4959504;28;20228;-90
2022/12/14 00:30:16;;;;;;;6.03;5.53;;;-7.80;99.90;;;;;;4976043;28;20197;-89
2022/12/14 00:32:42;;;;;;;3.93;3.73;;;;;;;;;;4975986;28;20184;-90
2022/12/14 00:35:09;;;;;;;4.70;4.07;;;-7.70;99.90;;;;;;4965447;28;20257;-89
2022/12/14 00:37:36;;;;;;;3.70;3.40;;;;;;;;;;4958776;28;20188;-89
2022/12/14 00:40:04;;;;;;;3.37;3.07;;;-7.70;99.90;;;;;;4975319;28;20236;-90
2022/12/14 00:42:30;;;;;;;2.90;2.80;;;;;;;;;;4976048;28;20654;-89
2022/12/14 00:44:56;;;;;;;3.20;3.00;;;;;;;;;;4980293;28;20188;-88
2022/12/14 00:47:22;;;;;;;12.33;4.47;;;;;;;;;;4978010;28;20213;-90
2022/12/14 00:49:48;;;;;;;10.50;4.43;;;;;;;;;;4994496;28;20193;-89
2022/12/14 00:52:14;;;;;;;3.20;3.10;;;;;;;;;;4977830;28;20189;-89
2022/12/14 00:54:41;;;;;;;3.03;2.73;;;;;;;;;;4968654;28;20882;-86
2022/12/14 00:57:07;;;;;;;7.43;5.97;;;;;;;;;;4975236;28;20197;-90
2022/12/14 00:59:33;;;;;;;2.87;2.77;;;;;;;;;;4965315;28;20189;-89
2022/12/14 01:01:59;;;;;;;3.03;2.93;;;;;;;;;;4994759;28;20239;-90
2022/12/14 01:04:25;;;;;;;4.30;4.00;;;;;;;;;;4961618;28;20186;-90
2022/12/14 01:06:52;;;;;;;2.70;2.60;;;-7.80;99.90;;;;;;4993717;28;20182;-90
2022/12/14 01:09:20;;;;;;;11.30;6.83;;;-7.80;99.90;;;;;;4977349;28;20611;-90
2022/12/14 01:11:46;;;;;;;9.07;5.17;;;;;;;;;;4977524;28;20277;-90
2022/12/14 01:14:13;;;;;;;18.77;8.90;;;-8.00;99.90;;;;;;4977653;28;20213;-91
2022/12/14 01:16:40;;;;;;;6.77;5.93;;;;;;;;;;4977744;28;20181;-90
2022/12/14 01:19:06;;;;;;;10.30;6.40;;;;;;;;;;4977190;28;20192;-90
2022/12/14 01:21:32;;;;;;;14.77;6.67;;;;;;;;;;4942627;29;20206;-90
2022/12/14 01:24:02;;;;;;;19.03;10.60;;;-8.30;99.90;;;;;;4958488;28;20185;-89
2022/12/14 01:26:29;;;;;;;9.93;8.53;;;-8.30;99.90;;;;;;4987385;28;20194;-90
2022/12/14 01:28:57;;;;;;;7.10;6.00;;;-8.40;99.90;;;;;;4991909;28;20240;-90
2022/12/14 01:31:28;;;;;;;6.53;6.07;;;-8.40;99.90;;;;;;4975340;28;20175;-90
2022/12/14 01:33:54;;;;;;;5.10;4.63;;;;;;;;;;4974506;28;20181;-89
2022/12/14 01:36:23;;;;;;;10.00;8.57;;;-8.50;99.90;;;;;;4963458;28;20195;-90
2022/12/14 01:38:53;;;;;;;9.13;8.33;;;-8.50;99.90;;;;;;4992252;28;20559;-89
2022/12/14 01:41:38;;;;;;;14.80;10.60;;;-8.60;99.90;;;;;;4989022;28;20198;-89
2022/12/14 01:44:23;;;;;;;13.83;7.33;;;-8.70;99.90;;;;;;4964460;28;20243;-89
2022/12/14 01:46:55;;;;;;;23.43;7.30;;;-8.80;99.90;;;;;;4974525;28;20184;-89
2022/12/14 01:49:37;;;;;;;7.73;6.67;;;-8.90;99.90;;;;;;4974760;28;20200;-89
2022/12/14 01:52:27;;;;;;;6.03;5.47;;;-9.00;99.90;;;;;;4957463;28;20271;-89
2022/12/14 01:55:04;;;;;;;6.43;6.03;;;-9.00;99.90;;;;;;4978526;28;20594;-89
2022/12/14 01:57:56;;;;;;;8.23;6.67;;;-9.00;99.90;;;;;;4974647;28;20681;-89
2022/12/14 02:00:22;;;;;;;6.30;5.80;;;;;;;;;;4974681;28;20233;-90
2022/12/14 02:03:06;;;;;;;14.50;8.93;;;-9.10;99.90;;;;;;4974916;28;20699;-89
2022/12/14 02:05:36;;;;;;;10.27;8.20;;;-9.10;99.90;;;;;;4975848;28;20223;-88
2022/12/14 02:08:04;;;;;;;18.73;9.87;;;-9.10;99.90;;;;;;4997363;28;20626;-89
2022/12/14 02:10:31;;;;;;;10.13;8.00;;;-9.10;99.90;;;;;;4977780;28;20719;-89
2022/12/14 02:13:13;;;;;;;10.47;9.37;;;-9.20;99.90;;;;;;4995965;28;20179;-88
2022/12/14 02:15:40;;;;;;;11.80;8.30;;;-9.20;99.90;;;;;;4978490;28;20182;-87
2022/12/14 02:18:11;;;;;;;17.50;11.57;;;-9.20;99.90;;;;;;4996316;28;20202;-89
2022/12/14 02:21:04;;;;;;;9.77;7.50;;;-9.30;99.90;;;;;;5018139;28;20172;-89
2022/12/14 02:23:45;;;;;;;19.97;5.77;;;-9.20;99.90;;;;;;5001843;28;20182;-87
2022/12/14 02:26:48;;;;;;;10.90;8.53;;;-9.30;99.90;;;;;;5017282;28;20166;-88
2022/12/14 02:29:26;;;;;;;6.20;5.80;;;;;;;;;;4968806;28;20206;-89
2022/12/14 02:31:52;;;;;;;14.50;9.00;;;;;;;;;;4979381;28;20239;-89
2022/12/14 02:34:27;;;;;;;6.60;5.50;;;-9.50;99.90;;;;;;4979705;28;20565;-89
2022/12/14 02:37:00;;;;;;;20.87;6.73;;;-9.70;99.90;;;;;;4979530;28;20189;-90
2022/12/14 02:40:03;;;;;;;9.43;6.73;;;-9.60;99.90;;;;;;4966060;28;20183;-89
2022/12/14 02:42:55;;;;;;;3.87;3.57;;;-9.80;99.90;;;;;;4975953;28;20190;-88
2022/12/14 02:45:21;;;;;;;6.10;5.60;;;;;;;;;;4942906;28;20229;-88
2022/12/14 02:48:33;;;;;;;11.23;7.43;;;-9.80;99.90;;;;;;4979307;28;20650;-89
2022/12/14 02:50:59;;;;;;;8.13;6.47;;;;;;;;;;4935627;28;20190;-89
2022/12/14 02:53:41;;;;;;;6.53;6.07;;;-10.00;99.90;;;;;;4964086;28;20246;-89
2022/12/14 02:56:10;;;;;;;5.80;5.30;;;-10.00;99.90;;;;;;4965595;28;20186;-88
2022/12/14 02:58:42;;;;;;;6.30;5.80;;;-10.10;99.90;;;;;;4982696;28;20210;-89
2022/12/14 03:01:12;;;;;;;3.73;3.53;;;-10.10;99.90;;;;;;4982915;28;20174;-89
2022/12/14 03:03:39;;;;;;;5.70;5.20;;;;;;;;;;4984272;28;20223;-88
2022/12/14 03:06:24;;;;;;;7.17;5.30;;;-10.20;99.90;;;;;;4967447;28;20540;-89
2022/12/14 03:08:53;;;;;;;4.00;3.47;;;-10.20;99.90;;;;;;4984327;28;20249;-89
2022/12/14 03:11:24;;;;;;;6.07;5.50;;;-10.30;99.90;;;;;;5001255;28;20195;-88
2022/12/14 03:13:56;;;;;;;6.07;5.40;;;-10.40;99.90;;;;;;5006613;28;20163;-87
2022/12/14 03:16:29;;;;;;;10.73;7.63;;;-10.50;99.90;;;;;;5004865;28;20290;-88
2022/12/14 03:19:09;;;;;;;7.13;6.53;;;-10.60;99.90;;;;;;4999944;28;20197;-88
2022/12/14 03:22:04;;;;;;;5.40;5.00;;;-10.60;99.90;;;;;;4996785;28;20245;-88
2022/12/14 03:24:39;;;;;;;7.90;6.60;;;-10.60;99.90;;;;;;4979790;28;20533;-87
2022/12/14 03:27:18;;;;;;;9.33;6.07;;;-7.00;99.90;;;;;;4996945;28;20173;-88
2022/12/14 03:29:49;;;;;;;12.33;7.87;;;-10.70;99.90;;;;;;4995842;28;20162;-87
2022/12/14 03:32:19;;;;;;;7.17;6.33;;;-10.70;99.90;;;;;;4996632;28;20245;-87
2022/12/14 03:34:53;;;;;;;5.00;4.67;;;-10.80;99.90;;;;;;4997086;28;20174;-87
2022/12/14 03:37:36;;;;;;;6.47;5.83;;;-10.80;99.90;;;;;;4996488;28;20197;-87
2022/12/14 03:40:03;;;;;;;6.53;6.03;;;-10.80;99.90;;;;;;4995568;28;20674;-86
2022/12/14 03:43:12;;;;;;;9.97;8.10;;;-10.90;99.90;;;;;;4995205;28;20186;-87
2022/12/14 03:45:47;;;;;;;10.07;6.73;;;-11.10;99.90;;;;;;4977811;28;20291;-87
2022/12/14 03:48:30;;;;;;;13.07;6.97;;;-11.10;99.90;;;;;;4996145;28;20189;-88
2022/12/14 03:51:10;;;;;;;6.87;4.67;;;-11.10;99.90;;;;;;4997059;28;20163;-88
2022/12/14 03:54:09;;;;;;;9.83;6.13;;;-11.10;99.90;;;;;;4996714;28;20177;-88
2022/12/14 03:56:45;;;;;;;4.10;3.80;;;-11.10;99.90;;;;;;4979084;28;20218;-89
2022/12/14 03:59:19;;;;;;;11.20;6.37;;;-11.20;99.90;;;;;;4978550;28;20213;-87
2022/12/14 04:02:00;;;;;;;6.60;4.93;;;-11.20;99.90;;;;;;4994440;28;20647;-87
2022/12/14 04:04:35;;;;;;;3.73;3.53;;;-12.20;99.90;;;;;;4972596;28;20179;-87
2022/12/14 04:07:18;;;;;;;5.37;3.73;;;-11.30;99.90;;;;;;4978036;28;20635;-89
2022/12/14 04:09:44;;;;;;;12.77;5.90;;;;;;;;;;4986540;28;20595;-87
2022/12/14 04:21:22;;;;;;;5.17;4.03;;;-11.30;99.90;;;;;;4972303;28;20227;-87
2022/12/14 04:26:43;;;;;;;4.43;4.00;;;-11.30;99.90;;;;;;4969754;28;20222;-88
2022/12/14 04:32:03;;;;;;;11.57;7.03;;;-11.40;99.90;;;;;;4969656;28;20304;-88
2022/12/14 04:34:32;;;;;;;11.63;5.97;;;-11.50;99.90;;;;;;4965866;28;20178;-90
2022/12/14 04:37:01;;;;;;;10.30;7.23;;;-11.50;99.90;;;;;;4969642;28;20187;-90
2022/12/14 04:39:36;;;;;;;7.83;6.77;;;-11.50;99.90;;;;;;4954403;28;20222;-90
2022/12/14 04:42:05;;;;;;;6.23;5.73;;;-11.50;99.90;;;;;;4972843;28;20190;-90
2022/12/14 04:44:35;;;;;;;3.43;3.33;;;-11.50;99.90;;;;;;4951536;28;20201;-90
2022/12/14 04:47:06;;;;;;;5.13;4.73;;;-11.60;99.90;;;;;;4944985;28;20191;-88
2022/12/14 04:49:53;;;;;;;7.03;6.37;;;-11.70;99.90;;;;;;4946508;28;20187;-88
2022/12/14 04:52:27;;;;;;;8.40;7.67;;;-11.70;99.90;;;;;;4972248;28;20276;-87
2022/12/14 04:54:53;;;;;;;6.57;4.60;;;;;;;;;;4979623;28;20191;-87
2022/12/14 04:57:28;;;;;;;6.13;5.73;;;-11.80;99.90;;;;;;4973006;28;20217;-88
2022/12/14 04:59:55;;;;;;;5.43;5.07;;;-11.80;99.90;;;;;;4972984;28;20186;-89
2022/12/14 05:02:45;;;;;;;7.07;5.37;;;-11.80;99.90;;;;;;4952132;28;20325;-90
2022/12/14 05:05:16;;;;;;;7.87;7.17;;;-11.70;99.90;;;;;;4946286;28;20198;-88
2022/12/14 05:07:42;;;;;;;8.07;6.60;;;;;;;;;;4964891;28;20256;-88
2022/12/14 05:10:37;;;;;;;7.10;6.53;;;-11.70;99.90;;;;;;4941266;28;20797;-89
2022/12/14 05:13:05;;;;;;;12.03;10.70;;;-11.60;99.90;;;;;;4955509;28;20735;-89
2022/12/14 05:15:50;;;;;;;16.27;7.43;;;-11.60;99.90;;;;;;4971866;28;20205;-88
2022/12/14 05:18:16;;;;;;;7.50;6.27;;;;;;;;;;4971504;28;20273;-88
2022/12/14 05:20:42;;;;;;;4.47;4.20;;;-11.60;99.90;;;;;;4944455;28;20213;-88
2022/12/14 05:23:08;;;;;;;6.07;4.47;;;-11.70;99.90;;;;;;4966754;28;20663;-88
2022/12/14 05:25:34;;;;;;;7.57;6.90;;;;;;;;;;4972868;28;20496;-89
2022/12/14 05:28:00;;;;;;;9.07;7.63;;;;;;;;;;4951160;28;20199;-89
2022/12/14 05:30:26;;;;;;;10.33;8.60;;;-11.80;99.90;;;;;;4976398;28;20218;-87
2022/12/14 05:32:52;;;;;;;6.50;6.03;;;-11.80;99.90;;;;;;4977317;28;20194;-88
2022/12/14 05:35:17;;;;;;;6.33;5.77;;;-11.80;99.90;;;;;;4949621;28;20200;-88
2022/12/14 05:37:43;;;;;;;13.33;8.93;;;;;;;;;;4978124;28;20226;-88
2022/12/14 05:40:10;;;;;;;10.10;6.80;;;-11.90;99.90;;;;;;4948017;28;20209;-88
2022/12/14 05:42:35;;;;;;;15.33;8.33;;;-11.80;99.90;;;;;;4953697;28;20285;-87
2022/12/14 05:45:01;;;;;;;8.27;6.53;;;-11.80;99.90;;;;;;4928439;28;20332;-87
2022/12/14 05:47:26;;;;;;;7.73;7.03;;;-11.80;99.90;;;;;;4931509;28;20197;-87
2022/12/14 05:49:52;;;;;;;6.57;5.33;;;-11.90;99.90;;;;;;4919897;29;20194;-86
2022/12/14 05:52:18;;;;;;;8.77;7.73;;;;;;;;;;4942965;28;20198;-86
2022/12/14 05:54:44;;;;;;;6.83;6.13;;;-11.80;99.90;;;;;;4959334;28;20190;-87
2022/12/14 05:57:11;;;;;;;7.50;6.90;;;-11.80;99.90;;;;;;4945898;28;20695;-86
2022/12/14 05:59:37;;;;;;;9.60;8.27;;;-11.80;99.90;;;;;;4970961;28;20213;-88
2022/12/14 06:02:04;;;;;;;11.47;9.60;;;-11.80;99.90;;;;;;4995701;28;20248;-87
2022/12/14 06:04:29;;;;;;;13.80;9.77;;;-11.90;99.90;;;;;;4965033;28;20195;-88
2022/12/14 06:06:55;;;;;;;18.33;9.27;;;-12.00;99.90;;;;;;4983066;28;20178;-89
2022/12/14 06:09:21;;;;;;;6.83;6.27;;;-12.00;99.90;;;;;;4975478;28;20178;-86
2022/12/14 06:11:48;;;;;;;11.53;7.80;;;-12.00;99.90;;;;;;4989100;28;20198;-88
2022/12/14 06:14:15;;;;;;;9.00;8.10;;;-12.00;99.90;;;;;;4985753;28;20190;-88
2022/12/14 06:16:42;;;;;;;13.07;9.77;;;-12.00;99.90;;;;;;4997124;28;20228;-89
2022/12/14 06:19:09;;;;;;;11.70;9.27;;;-12.00;99.90;;;;;;4997422;28;20256;-89
2022/12/14 06:21:36;;;;;;;32.03;14.83;;;-12.00;99.90;;;;;;4974925;28;20229;-88
2022/12/14 06:24:03;;;;;;;17.63;8.40;;;-12.00;99.90;;;;;;4980177;28;20635;-89
2022/12/14 06:26:30;;;;;;;11.97;6.63;;;-12.00;99.90;;;;;;4974768;28;20205;-88
2022/12/14 06:28:57;;;;;;;9.17;8.20;;;-12.00;99.90;;;;;;4977628;28;20259;-90
2022/12/14 06:31:28;;;;;;;12.43;7.83;;;-12.00;99.90;;;;;;4943171;28;20186;-90
2022/12/14 06:33:54;;;;;;;6.63;6.17;;;;;;;;;;4985445;28;20265;-89
2022/12/14 06:36:22;;;;;;;16.10;8.10;;;-11.90;99.90;;;;;;4992017;28;20186;-88
2022/12/14 06:38:55;;;;;;;7.70;7.20;;;-12.00;99.90;;;;;;4967240;28;20223;-89
2022/12/14 06:41:23;;;;;;;10.93;9.60;;;-11.90;99.90;;;;;;4980547;28;20650;-89
2022/12/14 06:43:50;;;;;;;12.30;6.80;;;-11.90;99.90;;;;;;4976456;28;20572;-89
2022/12/14 06:46:18;;;;;;;5.67;5.23;;;-11.90;99.90;;;;;;4993605;28;20259;-88
2022/12/14 06:48:51;;;;;;;7.13;5.27;;;-11.90;99.90;;;;;;4976148;28;20277;-87
2022/12/14 06:51:18;;;;;;;7.10;6.43;;;-11.90;99.90;;;;;;4993651;28;20602;-89
2022/12/14 06:53:44;;;;;;;11.83;10.67;;;-11.80;99.90;;;;;;4975947;28;20335;-89
2022/12/14 06:56:11;;;;;;;20.70;8.03;;;-11.80;99.90;;;;;;4960263;28;20731;-88
2022/12/14 06:58:37;;;;;;;7.53;5.40;;;;;;;;;;4976863;28;20213;-89
2022/12/14 07:01:08;;;;;;;10.17;9.00;;;-11.60;99.90;;;;;;4976206;28;20186;-89
2022/12/14 07:03:34;;;;;;;11.17;10.27;;;-9.50;99.90;;;;;;4992881;28;20256;-89
2022/12/14 07:06:02;;;;;;;10.53;8.03;;;-11.50;99.90;;;;;;4993533;28;20216;-89
2022/12/14 07:08:30;;;;;;;6.70;6.17;;;-11.40;99.90;;;;;;4993319;28;20182;-89
2022/12/14 07:10:59;;;;;;;10.63;8.17;;;-11.40;99.90;;;;;;4976348;28;20647;-88
2022/12/14 07:13:25;;;;;;;9.90;9.07;;;-11.30;99.90;;;;;;4993144;28;20187;-88
2022/12/14 07:15:52;;;;;;;15.20;10.80;;;-11.30;99.90;;;;;;4961257;28;20264;-89
2022/12/14 07:18:19;;;;;;;31.17;13.37;;;-11.20;99.90;;;;;;4980482;28;20300;-89
2022/12/14 07:21:08;;;;;;;10.90;9.07;;;-11.00;99.90;;;;;;4979952;28;20212;-89
2022/12/14 07:23:36;;;;;;;21.50;13.93;;;-11.00;99.90;;;;;;4960827;28;20178;-91
2022/12/14 07:26:10;;;;;;;17.73;14.43;;;-10.90;99.90;;;;;;4978177;28;20217;-90
2022/12/14 07:28:37;;;;;;;23.47;13.93;;;-10.90;99.90;;;;;;4960176;28;20193;-90
2022/12/14 07:31:06;;;;;;;14.57;11.47;;;-10.90;99.90;;;;;;4960574;28;20236;-91
2022/12/14 07:33:33;;;;;;;16.13;12.30;;;-10.70;99.90;;;;;;4960392;28;20174;-91
2022/12/14 07:36:04;;;;;;;20.80;13.93;;;-10.80;99.90;;;;;;4977579;28;20616;-91
2022/12/14 07:38:30;;;;;;;36.17;16.03;;;-10.60;99.90;;;;;;4959825;28;20689;-89
2022/12/14 07:41:01;;;;;;;36.70;26.40;;;-10.50;99.90;;;;;;4975375;28;20326;-90
2022/12/14 07:43:27;;;;;;;37.23;24.30;;;-10.50;99.90;;;;;;4979308;28;20235;-88
2022/12/14 07:45:53;;;;;;;29.67;19.47;;;-10.40;99.90;;;;;;4958806;29;20687;-90
2022/12/14 07:48:18;;;;;;;27.27;15.90;;;-10.30;99.90;;;;;;4940820;29;20187;-91
2022/12/14 07:50:44;;;;;;;24.20;11.07;;;-10.40;99.90;;;;;;4947554;28;20198;-90
2022/12/14 07:53:09;;;;;;;26.53;15.37;;;-10.20;99.90;;;;;;4956994;28;20195;-89
2022/12/14 07:55:35;;;;;;;33.73;20.77;;;-10.20;99.90;;;;;;4958842;28;20245;-90
2022/12/14 07:58:01;;;;;;;26.70;19.67;;;-10.20;99.90;;;;;;4943723;28;20261;-90
2022/12/14 08:00:27;;;;;;;34.27;22.53;;;-10.20;99.90;;;;;;4959852;28;20191;-89
2022/12/14 08:02:54;;;;;;;30.37;23.23;;;-10.00;99.90;;;;;;4957797;28;20271;-87
2022/12/14 08:05:19;;;;;;;18.13;16.27;;;-10.10;99.90;;;;;;4948795;28;20202;-88
2022/12/14 08:07:45;;;;;;;18.63;13.00;;;-9.90;99.90;;;;;;4961620;28;20230;-89
2022/12/14 08:10:11;;;;;;;25.30;17.80;;;;;;;;;;4943685;28;20194;-89
2022/12/14 08:12:37;;;;;;;20.47;17.27;;;-9.70;99.90;;;;;;4951634;28;20269;-90
2022/12/14 08:15:03;;;;;;;42.00;19.37;;;-9.70;99.90;;;;;;4976628;28;20217;-89
2022/12/14 08:17:28;;;;;;;27.50;16.23;;;-9.60;99.90;;;;;;4943115;28;20216;-90
2022/12/14 08:19:54;;;;;;;23.27;17.57;;;-9.70;99.90;;;;;;4976153;28;20175;-90
2022/12/14 08:22:20;;;;;;;40.43;16.60;;;;;;;;;;4959215;28;20537;-89
2022/12/14 08:24:46;;;;;;;17.97;15.60;;;-9.40;99.90;;;;;;4942919;28;20637;-90
2022/12/14 08:27:12;;;;;;;14.50;13.33;;;;;;;;;;4975336;28;20196;-89
2022/12/14 08:29:38;;;;;;;32.97;21.33;;;;;;;;;;4958986;28;20188;-89
2022/12/14 08:32:03;;;;;;;49.47;21.17;;;-9.10;99.90;;;;;;4976088;28;20270;-90
2022/12/14 08:34:29;;;;;;;48.87;24.70;;;-9.00;99.90;;;;;;4959126;28;20190;-89
2022/12/14 08:36:55;;;;;;;38.17;22.30;;;-9.00;99.90;;;;;;4958540;28;20191;-89
2022/12/14 08:39:20;;;;;;;24.27;17.53;;;-8.90;99.90;;;;;;4942676;28;20211;-90
2022/12/14 08:41:46;;;;;;;27.30;17.53;;;-8.90;99.90;;;;;;4976023;28;20650;-90
2022/12/14 08:44:15;;;;;;;32.13;19.97;;;-7.00;99.90;;;;;;4959002;28;20183;-89
2022/12/14 08:46:41;;;;;;;23.83;18.93;;;-8.90;99.90;;;;;;4976483;28;20651;-89
2022/12/14 08:49:07;;;;;;;26.40;15.47;;;-8.80;99.90;;;;;;4961238;28;20193;-89
2022/12/14 08:51:36;;;;;;;47.33;21.10;;;-8.70;99.90;;;;;;4959147;28;20588;-89
2022/12/14 08:54:02;;;;;;;34.57;18.83;;;-8.40;99.90;;;;;;4958909;28;20180;-89
2022/12/14 08:56:28;;;;;;;21.33;18.07;;;-6.50;99.90;;;;;;4958902;28;20186;-89
2022/12/14 08:58:54;;;;;;;24.03;14.10;;;-6.00;99.90;;;;;;4976026;28;20274;-90
2022/12/14 09:01:22;;;;;;;35.00;13.37;;;-8.00;99.90;;;;;;4959140;28;20206;-88
2022/12/14 09:03:48;;;;;;;33.37;13.93;;;-7.90;99.90;;;;;;4968931;28;20227;-89
2022/12/14 09:06:28;;;;;;;27.10;15.37;;;-5.70;99.90;;;;;;4943146;28;20232;-90
2022/12/14 09:08:54;;;;;;;18.83;12.37;;;-7.70;99.90;;;;;;4984698;28;20273;-90
2022/12/14 09:11:20;;;;;;;34.17;14.60;;;;;;;;;;4979794;28;20198;-89
2022/12/14 09:13:46;;;;;;;21.07;12.03;;;-7.70;99.90;;;;;;4972077;28;20196;-89
2022/12/14 09:16:18;;;;;;;18.00;11.80;;;-8.10;99.90;;;;;;4967747;28;20184;-89
2022/12/14 09:18:44;;;;;;;21.83;15.00;;;-8.10;99.90;;;;;;4977947;28;20214;-89
2022/12/14 09:21:11;;;;;;;30.80;13.60;;;-8.00;99.90;;;;;;4995639;28;20175;-89
2022/12/14 09:23:37;;;;;;;25.63;10.80;;;-7.90;99.90;;;;;;4995136;28;20182;-90
2022/12/14 09:26:18;;;;;;;28.30;11.83;;;-5.20;99.90;;;;;;4995076;28;20180;-89
2022/12/14 09:28:49;;;;;;;13.90;11.63;;;-7.70;99.90;;;;;;4973867;28;20178;-89
2022/12/14 09:31:16;;;;;;;21.93;12.43;;;-7.50;99.90;;;;;;4956626;29;20196;-89
2022/12/14 09:33:42;;;;;;;29.50;13.57;;;-7.40;99.90;;;;;;4939202;29;20186;-90
2022/12/14 09:36:19;;;;;;;32.23;14.67;;;-7.20;99.90;;;;;;4923442;29;20187;-86
2022/12/14 09:38:45;;;;;;;21.67;12.87;;;-7.10;99.90;;;;;;4938531;29;20216;-88
2022/12/14 09:41:33;;;;;;;28.60;13.37;;;-7.00;99.90;;;;;;4938784;29;20274;-88
2022/12/14 09:44:24;;;;;;;12.90;10.87;;;-6.80;99.90;;;;;;4938640;29;20192;-88
2022/12/14 09:47:22;;;;;;;25.73;11.03;;;-6.80;99.90;;;;;;4953691;28;20185;-87
2022/12/14 09:50:17;;;;;;;17.47;10.47;;;-6.70;99.90;;;;;;4953618;28;20262;-89
2022/12/14 09:52:50;;;;;;;29.53;12.13;;;-6.60;99.90;;;;;;4963273;28;20201;-88
2022/12/14 09:55:25;;;;;;;22.60;12.50;;;-6.60;99.90;;;;;;4986074;28;20176;-89
2022/12/14 09:57:56;;;;;;;13.97;10.20;;;-6.40;99.90;;;;;;4991512;28;20224;-87
2022/12/14 10:00:22;;;;;;;19.13;14.60;;;-3.60;99.90;;;;;;4979729;28;20250;-88
2022/12/14 10:02:53;;;;;;;33.73;13.77;;;-4.00;99.90;;;;;;4999620;28;20222;-87
2022/12/14 10:05:23;;;;;;;21.00;11.60;;;-5.70;99.90;;;;;;4981628;28;20267;-89
2022/12/14 10:08:12;;;;;;;23.73;13.03;;;-3.80;99.90;;;;;;4967307;28;20264;-88
2022/12/14 10:11:02;;;;;;;13.77;9.17;;;-3.90;99.90;;;;;;5001904;28;20170;-88
2022/12/14 10:13:50;;;;;;;10.90;7.90;;;-5.30;99.90;;;;;;5001505;28;20174;-89
2022/12/14 10:16:33;;;;;;;11.40;8.20;;;-5.30;99.90;;;;;;5007415;28;20163;-88
2022/12/14 10:19:17;;;;;;;11.63;8.87;;;-5.30;99.90;;;;;;4992664;28;20211;-88
2022/12/14 10:21:50;;;;;;;14.30;10.63;;;-5.00;99.90;;;;;;4992414;28;20185;-88
2022/12/14 10:24:41;;;;;;;16.10;10.13;;;-3.20;99.90;;;;;;4994460;28;20206;-87
2022/12/14 10:27:08;;;;;;;21.73;11.87;;;-4.80;99.90;;;;;;4959840;28;20184;-89
2022/12/14 10:29:42;;;;;;;25.40;12.30;;;-4.80;99.90;;;;;;4975601;28;20668;-88
2022/12/14 10:32:27;;;;;;;12.07;8.97;;;-4.80;99.90;;;;;;4975296;28;20179;-89
2022/12/14 10:34:53;;;;;;;15.80;10.77;;;-4.90;99.90;;;;;;4961444;28;20226;-89
2022/12/14 10:37:38;;;;;;;14.93;11.77;;;-5.10;99.90;;;;;;4938764;29;20543;-89
2022/12/14 10:40:17;;;;;;;20.20;14.67;;;-2.60;99.90;;;;;;4938994;29;20187;-90
2022/12/14 10:42:42;;;;;;;43.97;16.37;;;-4.90;99.90;;;;;;4956602;29;20171;-90
2022/12/14 10:45:27;;;;;;;30.07;15.93;;;-4.90;99.90;;;;;;4954423;29;20535;-90
2022/12/14 10:48:23;;;;;;;20.30;10.20;;;-4.70;99.90;;;;;;4938585;29;20184;-88
2022/12/14 10:51:10;;;;;;;20.73;12.60;;;-4.60;99.90;;;;;;4928796;28;20267;-90
2022/12/14 10:53:57;;;;;;;31.63;11.17;;;-4.70;99.90;;;;;;4960507;28;20186;-89
2022/12/14 10:56:34;;;;;;;20.97;11.03;;;-4.50;99.90;;;;;;4954809;28;20711;-89
2022/12/14 10:59:21;;;;;;;16.77;9.57;;;-4.40;99.90;;;;;;4961068;28;20667;-88
2022/12/14 11:01:59;;;;;;;36.77;16.73;;;-4.50;99.90;;;;;;4961087;28;20286;-88
2022/12/14 11:04:38;;;;;;;40.73;12.10;;;-4.30;99.90;;;;;;4979444;28;20304;-89
2022/12/14 11:07:08;;;;;;;16.00;8.30;;;-4.20;99.90;;;;;;4966609;28;20546;-88
2022/12/14 11:09:35;;;;;;;23.13;9.57;;;-2.10;99.90;;;;;;4997981;28;20187;-88
2022/12/14 11:12:06;;;;;;;23.83;10.13;;;-3.00;99.90;;;;;;4965351;28;20189;-89
2022/12/14 11:14:35;;;;;;;15.80;8.03;;;-3.80;99.90;;;;;;4981437;28;20268;-87
2022/12/14 11:17:01;;;;;;;20.70;10.33;;;;;;;;;;4960837;28;20187;-86
2022/12/14 11:19:27;;;;;;;28.80;11.30;;;-3.90;99.90;;;;;;4979567;28;20692;-89
2022/12/14 11:22:10;;;;;;;22.83;11.83;;;-1.60;99.90;;;;;;4978549;28;20177;-88
2022/12/14 11:24:43;;;;;;;12.57;7.87;;;-4.20;99.90;;;;;;4961454;28;20237;-88
2022/12/14 11:27:10;;;;;;;15.10;10.10;;;-1.60;99.90;;;;;;4978264;28;20164;-89
2022/12/14 11:29:38;;;;;;;10.33;6.47;;;-4.50;99.90;;;;;;4978914;28;20190;-91
2022/12/14 11:32:05;;;;;;;26.10;6.23;;;;;;;;;;4977639;28;20641;-89
2022/12/14 11:34:33;;;;;;;23.67;10.93;;;-4.70;99.90;;;;;;4961702;28;20206;-89
2022/12/14 11:37:31;;;;;;;25.87;11.83;;;-4.70;99.90;;;;;;4977962;28;20645;-89
2022/12/14 11:40:04;;;;;;;14.60;5.67;;;-4.80;99.90;;;;;;4950174;28;20221;-87
2022/12/14 11:42:30;;;;;;;15.90;6.40;;;;;;;;;;4978422;28;20235;-90
2022/12/14 11:45:24;;;;;;;11.27;7.03;;;-4.90;99.90;;;;;;4961559;28;20186;-90
2022/12/14 11:48:12;;;;;;;12.67;7.37;;;-5.10;99.90;;;;;;4961683;28;20235;-89
2022/12/14 11:50:38;;;;;;;11.63;8.00;;;;;;;;;;4960160;28;20189;-89
2022/12/14 11:53:08;;;;;;;18.93;8.63;;;-5.10;99.90;;;;;;4961576;28;20199;-88
2022/12/14 11:55:37;;;;;;;21.80;6.17;;;-3.70;99.90;;;;;;4956264;28;20248;-87
2022/12/14 11:58:10;;;;;;;12.80;7.37;;;-5.10;99.90;;;;;;4974929;28;20279;-87
2022/12/14 12:00:48;;;;;;;28.80;10.93;;;-5.00;99.90;;;;;;4959866;28;20239;-88
2022/12/14 12:03:22;;;;;;;16.00;8.80;;;-5.00;99.90;;;;;;4976616;28;20251;-87
2022/12/14 12:05:49;;;;;;;10.90;8.07;;;-5.00;99.90;;;;;;4983146;28;20202;-86
2022/12/14 12:08:17;;;;;;;22.37;10.07;;;-5.00;99.90;;;;;;4982859;28;20268;-89
2022/12/14 12:10:46;;;;;;;10.23;6.13;;;-5.00;99.90;;;;;;4961638;28;20634;-89
2022/12/14 12:13:35;;;;;;;8.47;6.80;;;-4.90;99.90;;;;;;4976423;28;20537;-89
2022/12/14 12:16:21;;;;;;;8.87;6.53;;;-5.10;99.90;;;;;;4977223;28;20185;-87
2022/12/14 12:18:53;;;;;;;18.20;8.50;;;-5.50;99.90;;;;;;4974231;28;20214;-90
2022/12/14 12:21:19;;;;;;;5.67;5.13;;;;;;;;;;4966568;28;20190;-89
2022/12/14 12:24:04;;;;;;;9.10;6.63;;;-5.20;99.90;;;;;;4979246;28;20245;-87
2022/12/14 12:26:49;;;;;;;41.43;10.93;;;-5.20;99.90;;;;;;4996093;28;20654;-87
2022/12/14 12:29:39;;;;;;;7.87;5.60;;;-5.50;99.90;;;;;;4995098;28;20281;-89
2022/12/14 12:32:20;;;;;;;15.13;8.27;;;-5.30;99.90;;;;;;4990603;28;20186;-88
2022/12/14 12:34:56;;;;;;;11.53;5.70;;;-5.30;99.90;;;;;;4960441;28;20184;-88
2022/12/14 12:37:29;;;;;;;7.47;5.83;;;-5.30;99.90;;;;;;4950981;29;20193;-89
2022/12/14 12:40:11;;;;;;;16.47;7.83;;;-5.40;99.90;;;;;;4958533;29;20179;-88
2022/12/14 12:42:44;;;;;;;14.17;7.13;;;-5.30;99.90;;;;;;4958619;29;20164;-87
2022/12/14 12:45:21;;;;;;;12.27;7.80;;;-5.30;99.90;;;;;;4952610;28;20249;-87
2022/12/14 12:48:01;;;;;;;22.63;7.17;;;-5.30;99.90;;;;;;4977604;28;20182;-86
2022/12/14 12:50:33;;;;;;;23.03;8.70;;;-5.20;99.90;;;;;;4977126;28;20178;-87
2022/12/14 12:53:10;;;;;;;28.10;10.20;;;-5.30;99.90;;;;;;4960124;28;20179;-86
2022/12/14 12:56:02;;;;;;;25.33;12.43;;;-5.10;99.90;;;;;;4976288;28;20910;-87
2022/12/14 12:58:31;;;;;;;13.43;9.03;;;-5.20;99.90;;;;;;4976360;28;20217;-87
2022/12/14 13:01:00;;;;;;;7.17;6.07;;;-3.10;99.90;;;;;;4979664;28;20179;-88
2022/12/14 13:03:36;;;;;;;6.53;5.87;;;-2.90;99.90;;;;;;4980519;28;20226;-89
2022/12/14 13:06:14;;;;;;;10.93;6.07;;;-1.80;99.90;;;;;;4961424;28;20194;-86
2022/12/14 13:08:42;;;;;;;25.10;9.67;;;-4.00;99.90;;;;;;4976324;28;20183;-84
2022/12/14 13:11:36;;;;;;;8.00;5.87;;;-2.50;99.90;;;;;;4975979;28;20232;-85
2022/12/14 13:14:16;;;;;;;21.13;13.20;;;-5.20;99.90;;;;;;4959175;28;20194;-85
2022/12/14 13:16:42;;;;;;;25.50;11.97;;;;;;;;;;4978622;28;20265;-89
2022/12/14 13:19:29;;;;;;;34.10;18.73;;;-5.20;99.90;;;;;;4991331;28;20216;-87
2022/12/14 13:21:55;;;;;;;36.97;18.10;;;;;;;;;;4975725;28;20162;-85
2022/12/14 13:24:22;;;;;;;31.73;18.20;;;-5.30;99.90;;;;;;4942649;28;20194;-85
2022/12/14 13:27:20;;;;;;;21.70;14.93;;;-2.40;99.90;;;;;;4943330;28;20187;-86
2022/12/14 13:29:58;;;;;;;24.57;10.20;;;-5.20;99.90;;;;;;4958734;28;20186;-86
2022/12/14 13:32:41;;;;;;;30.10;18.70;;;-5.20;99.90;;;;;;4976867;28;20255;-90